sensor_id;sensor_type;location;lat;lon;timestamp;P1;durP1;ratioP1;P2;durP2;ratioP2
51866;SDS011;52862;52.504;13.480;2022-10-17T00:00:35;27.03;;;10.20;;
51866;SDS011;52862;52.504;13.480;2022-10-17T00:03:02;17.07;;;10.13;;
51866;SDS011;52862;52.504;13.480;2022-10-17T00:05:29;24.27;;;11.10;;
51866;SDS011;52862;52.504;13.480;2022-10-17T00:07:56;16.77;;;9.33;;
51866;SDS011;52862;52.504;13.480;2022-10-17T00:10:23;22.23;;;9.73;;
51866;SDS011;52862;52.504;13.480;2022-10-17T00:12:50;21.63;;;9.50;;
51866;SDS011;52862;52.504;13.480;2022-10-17T00:15:20;26.47;;;9.07;;
51866;SDS011;52862;52.504;13.480;2022-10-17T00:17:48;21.47;;;9.57;;
51866;SDS011;52862;52.504;13.480;2022-10-17T00:20:14;22.40;;;10.17;;
51866;SDS011;52862;52.504;13.480;2022-10-17T00:22:41;19.33;;;7.90;;
51866;SDS011;52862;52.504;13.480;2022-10-17T00:25:09;12.63;;;7.13;;
51866;SDS011;52862;52.504;13.480;2022-10-17T00:27:36;16.17;;;8.17;;
51866;SDS011;52862;52.504;13.480;2022-10-17T00:30:05;15.77;;;7.37;;
51866;SDS011;52862;52.504;13.480;2022-10-17T00:32:35;16.73;;;7.40;;
51866;SDS011;52862;52.504;13.480;2022-10-17T00:35:02;16.07;;;6.90;;
51866;SDS011;52862;52.504;13.480;2022-10-17T00:37:29;17.33;;;7.60;;
51866;SDS011;52862;52.504;13.480;2022-10-17T00:39:56;12.63;;;6.57;;
51866;SDS011;52862;52.504;13.480;2022-10-17T00:42:24;13.87;;;6.63;;
51866;SDS011;52862;52.504;13.480;2022-10-17T00:47:43;16.20;;;7.50;;
51866;SDS011;52862;52.504;13.480;2022-10-17T00:50:13;11.07;;;7.17;;
51866;SDS011;52862;52.504;13.480;2022-10-17T00:52:40;19.40;;;6.67;;
51866;SDS011;52862;52.504;13.480;2022-10-17T00:55:08;12.67;;;5.83;;
51866;SDS011;52862;52.504;13.480;2022-10-17T00:57:40;17.57;;;6.87;;
51866;SDS011;52862;52.504;13.480;2022-10-17T01:00:08;11.50;;;7.13;;
51866;SDS011;52862;52.504;13.480;2022-10-17T01:02:36;14.23;;;7.47;;
51866;SDS011;52862;52.504;13.480;2022-10-17T01:05:04;10.47;;;6.03;;
51866;SDS011;52862;52.504;13.480;2022-10-17T01:07:32;10.10;;;6.03;;
51866;SDS011;52862;52.504;13.480;2022-10-17T01:10:03;14.67;;;6.23;;
51866;SDS011;52862;52.504;13.480;2022-10-17T01:12:32;18.07;;;6.97;;
51866;SDS011;52862;52.504;13.480;2022-10-17T01:15:08;13.47;;;6.30;;
51866;SDS011;52862;52.504;13.480;2022-10-17T01:17:41;15.07;;;6.07;;
51866;SDS011;52862;52.504;13.480;2022-10-17T01:20:29;15.87;;;5.80;;
51866;SDS011;52862;52.504;13.480;2022-10-17T01:23:30;20.47;;;6.60;;
51866;SDS011;52862;52.504;13.480;2022-10-17T01:26:15;11.00;;;6.30;;
51866;SDS011;52862;52.504;13.480;2022-10-17T01:31:46;10.57;;;5.53;;
51866;SDS011;52862;52.504;13.480;2022-10-17T01:34:18;13.33;;;5.57;;
51866;SDS011;52862;52.504;13.480;2022-10-17T01:36:49;13.43;;;6.00;;
51866;SDS011;52862;52.504;13.480;2022-10-17T01:39:22;16.17;;;5.77;;
51866;SDS011;52862;52.504;13.480;2022-10-17T01:41:56;13.10;;;5.77;;
51866;SDS011;52862;52.504;13.480;2022-10-17T01:44:28;17.10;;;5.53;;
51866;SDS011;52862;52.504;13.480;2022-10-17T01:47:04;18.37;;;5.30;;
51866;SDS011;52862;52.504;13.480;2022-10-17T01:49:33;10.77;;;5.20;;
51866;SDS011;52862;52.504;13.480;2022-10-17T01:52:03;11.83;;;5.40;;
51866;SDS011;52862;52.504;13.480;2022-10-17T01:54:36;8.90;;;5.83;;
51866;SDS011;52862;52.504;13.480;2022-10-17T01:57:05;10.07;;;5.20;;
51866;SDS011;52862;52.504;13.480;2022-10-17T01:59:37;13.23;;;5.77;;
51866;SDS011;52862;52.504;13.480;2022-10-17T02:02:07;11.60;;;5.67;;
51866;SDS011;52862;52.504;13.480;2022-10-17T02:04:35;11.73;;;5.17;;
51866;SDS011;52862;52.504;13.480;2022-10-17T02:07:05;11.93;;;5.63;;
51866;SDS011;52862;52.504;13.480;2022-10-17T02:09:32;17.87;;;5.30;;
51866;SDS011;52862;52.504;13.480;2022-10-17T02:12:06;14.53;;;5.63;;
51866;SDS011;52862;52.504;13.480;2022-10-17T02:14:42;13.23;;;5.80;;
51866;SDS011;52862;52.504;13.480;2022-10-17T02:17:22;7.60;;;4.73;;
51866;SDS011;52862;52.504;13.480;2022-10-17T02:20:01;7.03;;;5.20;;
51866;SDS011;52862;52.504;13.480;2022-10-17T02:22:36;9.07;;;5.37;;
51866;SDS011;52862;52.504;13.480;2022-10-17T02:25:08;9.87;;;5.80;;
51866;SDS011;52862;52.504;13.480;2022-10-17T02:27:41;10.10;;;5.00;;
51866;SDS011;52862;52.504;13.480;2022-10-17T02:30:11;10.87;;;5.30;;
51866;SDS011;52862;52.504;13.480;2022-10-17T02:32:42;13.53;;;5.47;;
51866;SDS011;52862;52.504;13.480;2022-10-17T02:35:15;9.70;;;5.83;;
51866;SDS011;52862;52.504;13.480;2022-10-17T02:37:44;14.37;;;5.80;;
51866;SDS011;52862;52.504;13.480;2022-10-17T02:40:13;9.67;;;5.23;;
51866;SDS011;52862;52.504;13.480;2022-10-17T02:42:43;10.43;;;4.73;;
51866;SDS011;52862;52.504;13.480;2022-10-17T02:45:11;7.47;;;5.13;;
51866;SDS011;52862;52.504;13.480;2022-10-17T02:47:42;12.27;;;4.77;;
51866;SDS011;52862;52.504;13.480;2022-10-17T02:50:14;12.87;;;5.20;;
51866;SDS011;52862;52.504;13.480;2022-10-17T02:52:42;9.63;;;5.43;;
51866;SDS011;52862;52.504;13.480;2022-10-17T02:55:23;10.83;;;5.07;;
51866;SDS011;52862;52.504;13.480;2022-10-17T02:57:56;8.37;;;4.40;;
51866;SDS011;52862;52.504;13.480;2022-10-17T03:00:25;9.60;;;5.00;;
51866;SDS011;52862;52.504;13.480;2022-10-17T03:02:54;8.43;;;5.03;;
51866;SDS011;52862;52.504;13.480;2022-10-17T03:05:22;12.90;;;5.07;;
51866;SDS011;52862;52.504;13.480;2022-10-17T03:07:50;13.47;;;5.43;;
51866;SDS011;52862;52.504;13.480;2022-10-17T03:10:17;13.93;;;5.13;;
51866;SDS011;52862;52.504;13.480;2022-10-17T03:12:44;8.80;;;4.80;;
51866;SDS011;52862;52.504;13.480;2022-10-17T03:15:11;11.43;;;4.93;;
51866;SDS011;52862;52.504;13.480;2022-10-17T03:17:38;12.10;;;5.37;;
51866;SDS011;52862;52.504;13.480;2022-10-17T03:20:06;9.50;;;5.43;;
51866;SDS011;52862;52.504;13.480;2022-10-17T03:22:33;14.63;;;5.33;;
51866;SDS011;52862;52.504;13.480;2022-10-17T03:25:00;14.47;;;6.10;;
51866;SDS011;52862;52.504;13.480;2022-10-17T03:27:26;12.57;;;4.97;;
51866;SDS011;52862;52.504;13.480;2022-10-17T03:29:53;8.37;;;4.80;;
51866;SDS011;52862;52.504;13.480;2022-10-17T03:32:20;11.53;;;5.07;;
51866;SDS011;52862;52.504;13.480;2022-10-17T03:34:46;8.17;;;4.83;;
51866;SDS011;52862;52.504;13.480;2022-10-17T03:37:14;8.43;;;4.80;;
51866;SDS011;52862;52.504;13.480;2022-10-17T03:39:40;7.67;;;4.80;;
51866;SDS011;52862;52.504;13.480;2022-10-17T03:42:07;7.67;;;4.97;;
51866;SDS011;52862;52.504;13.480;2022-10-17T03:44:33;12.20;;;5.50;;
51866;SDS011;52862;52.504;13.480;2022-10-17T03:47:00;9.67;;;5.80;;
51866;SDS011;52862;52.504;13.480;2022-10-17T03:49:27;9.30;;;5.30;;
51866;SDS011;52862;52.504;13.480;2022-10-17T03:51:53;11.53;;;6.07;;
51866;SDS011;52862;52.504;13.480;2022-10-17T03:54:21;12.37;;;5.63;;
51866;SDS011;52862;52.504;13.480;2022-10-17T03:56:47;15.27;;;5.20;;
51866;SDS011;52862;52.504;13.480;2022-10-17T03:59:14;12.73;;;5.20;;
51866;SDS011;52862;52.504;13.480;2022-10-17T04:01:41;13.03;;;5.30;;
51866;SDS011;52862;52.504;13.480;2022-10-17T04:04:08;9.30;;;4.80;;
51866;SDS011;52862;52.504;13.480;2022-10-17T04:06:35;8.37;;;5.23;;
51866;SDS011;52862;52.504;13.480;2022-10-17T04:09:03;13.13;;;5.30;;
51866;SDS011;52862;52.504;13.480;2022-10-17T04:11:31;18.23;;;5.37;;
51866;SDS011;52862;52.504;13.480;2022-10-17T04:13:58;12.37;;;5.60;;
51866;SDS011;52862;52.504;13.480;2022-10-17T04:16:24;9.37;;;5.57;;
51866;SDS011;52862;52.504;13.480;2022-10-17T04:18:52;12.10;;;4.90;;
51866;SDS011;52862;52.504;13.480;2022-10-17T04:21:20;8.37;;;5.70;;
51866;SDS011;52862;52.504;13.480;2022-10-17T04:23:47;8.93;;;5.10;;
51866;SDS011;52862;52.504;13.480;2022-10-17T04:26:17;9.47;;;5.13;;
51866;SDS011;52862;52.504;13.480;2022-10-17T04:28:44;8.27;;;5.40;;
51866;SDS011;52862;52.504;13.480;2022-10-17T04:31:12;11.43;;;5.37;;
51866;SDS011;52862;52.504;13.480;2022-10-17T04:33:39;9.93;;;5.50;;
51866;SDS011;52862;52.504;13.480;2022-10-17T04:36:07;12.23;;;5.23;;
51866;SDS011;52862;52.504;13.480;2022-10-17T04:38:37;10.83;;;6.17;;
51866;SDS011;52862;52.504;13.480;2022-10-17T04:41:05;7.87;;;5.53;;
51866;SDS011;52862;52.504;13.480;2022-10-17T04:43:34;14.47;;;6.13;;
51866;SDS011;52862;52.504;13.480;2022-10-17T04:46:03;19.03;;;6.03;;
51866;SDS011;52862;52.504;13.480;2022-10-17T04:48:31;11.87;;;5.90;;
51866;SDS011;52862;52.504;13.480;2022-10-17T04:50:59;18.63;;;6.77;;
51866;SDS011;52862;52.504;13.480;2022-10-17T04:53:27;12.30;;;5.97;;
51866;SDS011;52862;52.504;13.480;2022-10-17T04:55:55;8.80;;;5.87;;
51866;SDS011;52862;52.504;13.480;2022-10-17T04:58:22;10.53;;;6.27;;
51866;SDS011;52862;52.504;13.480;2022-10-17T05:00:48;9.00;;;5.47;;
51866;SDS011;52862;52.504;13.480;2022-10-17T05:03:16;14.03;;;6.20;;
51866;SDS011;52862;52.504;13.480;2022-10-17T05:05:42;18.60;;;6.83;;
51866;SDS011;52862;52.504;13.480;2022-10-17T05:08:09;19.40;;;6.27;;
51866;SDS011;52862;52.504;13.480;2022-10-17T05:10:37;21.67;;;6.83;;
51866;SDS011;52862;52.504;13.480;2022-10-17T05:13:04;14.30;;;5.60;;
51866;SDS011;52862;52.504;13.480;2022-10-17T05:15:31;11.57;;;6.73;;
51866;SDS011;52862;52.504;13.480;2022-10-17T05:17:57;13.53;;;7.33;;
51866;SDS011;52862;52.504;13.480;2022-10-17T05:20:25;10.63;;;6.87;;
51866;SDS011;52862;52.504;13.480;2022-10-17T05:22:52;12.43;;;6.97;;
51866;SDS011;52862;52.504;13.480;2022-10-17T05:25:20;29.33;;;6.60;;
51866;SDS011;52862;52.504;13.480;2022-10-17T05:27:46;13.00;;;7.90;;
51866;SDS011;52862;52.504;13.480;2022-10-17T05:30:14;21.03;;;8.03;;
51866;SDS011;52862;52.504;13.480;2022-10-17T05:32:41;16.07;;;7.07;;
51866;SDS011;52862;52.504;13.480;2022-10-17T05:35:09;37.37;;;8.13;;
51866;SDS011;52862;52.504;13.480;2022-10-17T05:37:36;11.03;;;7.07;;
51866;SDS011;52862;52.504;13.480;2022-10-17T05:40:03;10.63;;;7.57;;
51866;SDS011;52862;52.504;13.480;2022-10-17T05:42:30;12.27;;;7.70;;
51866;SDS011;52862;52.504;13.480;2022-10-17T05:44:58;13.30;;;8.00;;
51866;SDS011;52862;52.504;13.480;2022-10-17T05:47:24;19.83;;;8.23;;
51866;SDS011;52862;52.504;13.480;2022-10-17T05:49:55;18.93;;;8.00;;
51866;SDS011;52862;52.504;13.480;2022-10-17T05:52:22;13.23;;;8.07;;
51866;SDS011;52862;52.504;13.480;2022-10-17T05:54:49;18.13;;;8.33;;
51866;SDS011;52862;52.504;13.480;2022-10-17T05:57:15;16.03;;;7.97;;
51866;SDS011;52862;52.504;13.480;2022-10-17T05:59:42;14.87;;;8.27;;
51866;SDS011;52862;52.504;13.480;2022-10-17T06:02:12;20.73;;;8.27;;
51866;SDS011;52862;52.504;13.480;2022-10-17T06:04:39;17.60;;;9.17;;
51866;SDS011;52862;52.504;13.480;2022-10-17T06:07:10;16.90;;;8.33;;
51866;SDS011;52862;52.504;13.480;2022-10-17T06:09:38;13.60;;;8.60;;
51866;SDS011;52862;52.504;13.480;2022-10-17T06:12:05;16.30;;;8.07;;
51866;SDS011;52862;52.504;13.480;2022-10-17T06:14:32;16.43;;;8.60;;
51866;SDS011;52862;52.504;13.480;2022-10-17T06:16:59;13.70;;;8.27;;
51866;SDS011;52862;52.504;13.480;2022-10-17T06:19:26;17.23;;;8.00;;
51866;SDS011;52862;52.504;13.480;2022-10-17T06:21:52;19.03;;;7.70;;
51866;SDS011;52862;52.504;13.480;2022-10-17T06:24:19;13.90;;;9.57;;
51866;SDS011;52862;52.504;13.480;2022-10-17T06:26:46;14.83;;;8.23;;
51866;SDS011;52862;52.504;13.480;2022-10-17T06:29:15;14.50;;;7.60;;
51866;SDS011;52862;52.504;13.480;2022-10-17T06:31:41;21.10;;;7.73;;
51866;SDS011;52862;52.504;13.480;2022-10-17T06:34:08;11.97;;;7.33;;
51866;SDS011;52862;52.504;13.480;2022-10-17T06:36:34;15.67;;;7.13;;
51866;SDS011;52862;52.504;13.480;2022-10-17T06:39:01;12.70;;;8.13;;
51866;SDS011;52862;52.504;13.480;2022-10-17T06:41:28;15.37;;;7.23;;
51866;SDS011;52862;52.504;13.480;2022-10-17T06:43:54;14.37;;;7.63;;
51866;SDS011;52862;52.504;13.480;2022-10-17T06:46:22;11.17;;;7.17;;
51866;SDS011;52862;52.504;13.480;2022-10-17T06:48:51;22.63;;;7.07;;
51866;SDS011;52862;52.504;13.480;2022-10-17T06:51:17;12.63;;;6.73;;
51866;SDS011;52862;52.504;13.480;2022-10-17T06:53:44;10.20;;;6.97;;
51866;SDS011;52862;52.504;13.480;2022-10-17T06:56:11;11.17;;;6.83;;
51866;SDS011;52862;52.504;13.480;2022-10-17T06:58:38;14.43;;;7.60;;
51866;SDS011;52862;52.504;13.480;2022-10-17T07:01:06;18.57;;;7.00;;
51866;SDS011;52862;52.504;13.480;2022-10-17T07:03:39;11.53;;;7.17;;
51866;SDS011;52862;52.504;13.480;2022-10-17T07:06:08;14.80;;;7.23;;
51866;SDS011;52862;52.504;13.480;2022-10-17T07:08:41;13.50;;;6.50;;
51866;SDS011;52862;52.504;13.480;2022-10-17T07:11:08;23.37;;;7.47;;
51866;SDS011;52862;52.504;13.480;2022-10-17T07:13:35;13.53;;;7.50;;
51866;SDS011;52862;52.504;13.480;2022-10-17T07:16:04;23.57;;;7.63;;
51866;SDS011;52862;52.504;13.480;2022-10-17T07:18:32;20.70;;;7.20;;
51866;SDS011;52862;52.504;13.480;2022-10-17T07:20:59;24.13;;;7.23;;
51866;SDS011;52862;52.504;13.480;2022-10-17T07:23:26;24.27;;;7.20;;
51866;SDS011;52862;52.504;13.480;2022-10-17T07:25:57;18.87;;;7.17;;
51866;SDS011;52862;52.504;13.480;2022-10-17T07:28:24;27.63;;;6.60;;
51866;SDS011;52862;52.504;13.480;2022-10-17T07:30:51;21.87;;;6.90;;
51866;SDS011;52862;52.504;13.480;2022-10-17T07:33:19;18.53;;;6.90;;
51866;SDS011;52862;52.504;13.480;2022-10-17T07:35:47;18.33;;;7.40;;
51866;SDS011;52862;52.504;13.480;2022-10-17T07:38:18;12.00;;;6.17;;
51866;SDS011;52862;52.504;13.480;2022-10-17T07:40:45;11.60;;;6.70;;
51866;SDS011;52862;52.504;13.480;2022-10-17T07:43:18;21.50;;;7.23;;
51866;SDS011;52862;52.504;13.480;2022-10-17T07:45:44;30.63;;;6.90;;
51866;SDS011;52862;52.504;13.480;2022-10-17T07:48:11;21.53;;;6.30;;
51866;SDS011;52862;52.504;13.480;2022-10-17T07:50:38;27.27;;;6.83;;
51866;SDS011;52862;52.504;13.480;2022-10-17T07:53:04;17.63;;;5.73;;
51866;SDS011;52862;52.504;13.480;2022-10-17T07:55:32;17.27;;;6.70;;
51866;SDS011;52862;52.504;13.480;2022-10-17T07:57:58;11.27;;;5.90;;
51866;SDS011;52862;52.504;13.480;2022-10-17T08:00:25;20.03;;;5.83;;
51866;SDS011;52862;52.504;13.480;2022-10-17T08:02:52;16.83;;;5.80;;
51866;SDS011;52862;52.504;13.480;2022-10-17T08:05:19;27.80;;;5.97;;
51866;SDS011;52862;52.504;13.480;2022-10-17T08:07:45;17.93;;;5.77;;
51866;SDS011;52862;52.504;13.480;2022-10-17T08:10:13;11.50;;;5.83;;
51866;SDS011;52862;52.504;13.480;2022-10-17T08:12:41;15.73;;;5.00;;
51866;SDS011;52862;52.504;13.480;2022-10-17T08:15:08;12.70;;;5.63;;
51866;SDS011;52862;52.504;13.480;2022-10-17T08:17:36;13.63;;;4.93;;
51866;SDS011;52862;52.504;13.480;2022-10-17T08:20:04;9.43;;;4.37;;
51866;SDS011;52862;52.504;13.480;2022-10-17T08:22:32;10.67;;;5.30;;
51866;SDS011;52862;52.504;13.480;2022-10-17T08:24:59;15.83;;;5.03;;
51866;SDS011;52862;52.504;13.480;2022-10-17T08:27:26;14.43;;;4.70;;
51866;SDS011;52862;52.504;13.480;2022-10-17T08:29:54;11.07;;;5.17;;
51866;SDS011;52862;52.504;13.480;2022-10-17T08:32:21;9.30;;;4.93;;
51866;SDS011;52862;52.504;13.480;2022-10-17T08:34:50;11.40;;;4.57;;
51866;SDS011;52862;52.504;13.480;2022-10-17T08:37:17;9.80;;;4.67;;
51866;SDS011;52862;52.504;13.480;2022-10-17T08:39:44;13.47;;;4.80;;
51866;SDS011;52862;52.504;13.480;2022-10-17T08:42:27;10.83;;;4.37;;
51866;SDS011;52862;52.504;13.480;2022-10-17T08:45:06;9.47;;;4.70;;
51866;SDS011;52862;52.504;13.480;2022-10-17T08:47:41;16.37;;;4.57;;
51866;SDS011;52862;52.504;13.480;2022-10-17T08:50:11;16.20;;;3.93;;
51866;SDS011;52862;52.504;13.480;2022-10-17T08:52:43;14.43;;;4.50;;
51866;SDS011;52862;52.504;13.480;2022-10-17T08:55:14;8.23;;;4.23;;
51866;SDS011;52862;52.504;13.480;2022-10-17T08:57:42;22.20;;;3.90;;
51866;SDS011;52862;52.504;13.480;2022-10-17T09:00:13;8.90;;;3.90;;
51866;SDS011;52862;52.504;13.480;2022-10-17T09:02:48;17.00;;;4.20;;
51866;SDS011;52862;52.504;13.480;2022-10-17T09:08:15;6.83;;;4.50;;
51866;SDS011;52862;52.504;13.480;2022-10-17T09:10:56;10.97;;;4.13;;
51866;SDS011;52862;52.504;13.480;2022-10-17T09:13:31;13.93;;;4.20;;
51866;SDS011;52862;52.504;13.480;2022-10-17T09:16:20;12.73;;;3.87;;
51866;SDS011;52862;52.504;13.480;2022-10-17T09:19:02;6.43;;;3.40;;
51866;SDS011;52862;52.504;13.480;2022-10-17T09:21:36;7.60;;;4.00;;
51866;SDS011;52862;52.504;13.480;2022-10-17T09:24:09;7.77;;;3.50;;
51866;SDS011;52862;52.504;13.480;2022-10-17T09:26:41;10.82;;;3.72;;
51866;SDS011;52862;52.504;13.480;2022-10-17T09:29:14;14.03;;;3.93;;
51866;SDS011;52862;52.504;13.480;2022-10-17T09:31:46;14.70;;;3.93;;
51866;SDS011;52862;52.504;13.480;2022-10-17T09:34:26;10.57;;;4.20;;
51866;SDS011;52862;52.504;13.480;2022-10-17T09:36:54;12.15;;;3.70;;
51866;SDS011;52862;52.504;13.480;2022-10-17T09:39:23;14.85;;;3.90;;
51866;SDS011;52862;52.504;13.480;2022-10-17T09:41:54;11.67;;;4.67;;
51866;SDS011;52862;52.504;13.480;2022-10-17T09:44:23;8.20;;;3.50;;
51866;SDS011;52862;52.504;13.480;2022-10-17T09:47:07;11.47;;;3.37;;
51866;SDS011;52862;52.504;13.480;2022-10-17T09:49:43;11.17;;;3.67;;
51866;SDS011;52862;52.504;13.480;2022-10-17T09:52:13;11.57;;;3.30;;
51866;SDS011;52862;52.504;13.480;2022-10-17T09:54:44;8.05;;;3.33;;
51866;SDS011;52862;52.504;13.480;2022-10-17T09:57:13;11.90;;;3.27;;
51866;SDS011;52862;52.504;13.480;2022-10-17T09:59:41;10.10;;;3.05;;
51866;SDS011;52862;52.504;13.480;2022-10-17T10:02:15;10.05;;;3.10;;
51866;SDS011;52862;52.504;13.480;2022-10-17T10:04:50;13.15;;;2.90;;
51866;SDS011;52862;52.504;13.480;2022-10-17T10:07:35;7.57;;;3.22;;
51866;SDS011;52862;52.504;13.480;2022-10-17T10:10:05;14.98;;;3.13;;
51866;SDS011;52862;52.504;13.480;2022-10-17T10:12:35;7.03;;;3.35;;
51866;SDS011;52862;52.504;13.480;2022-10-17T10:15:28;12.90;;;3.47;;
51866;SDS011;52862;52.504;13.480;2022-10-17T10:17:58;7.25;;;3.00;;
51866;SDS011;52862;52.504;13.480;2022-10-17T10:20:27;15.65;;;3.30;;
51866;SDS011;52862;52.504;13.480;2022-10-17T10:23:12;14.25;;;3.15;;
51866;SDS011;52862;52.504;13.480;2022-10-17T10:25:50;5.32;;;2.90;;
51866;SDS011;52862;52.504;13.480;2022-10-17T10:28:19;7.20;;;2.90;;
51866;SDS011;52862;52.504;13.480;2022-10-17T10:30:53;7.95;;;3.15;;
51866;SDS011;52862;52.504;13.480;2022-10-17T10:33:24;6.50;;;3.35;;
51866;SDS011;52862;52.504;13.480;2022-10-17T10:35:54;14.50;;;3.30;;
51866;SDS011;52862;52.504;13.480;2022-10-17T10:38:28;6.97;;;2.95;;
51866;SDS011;52862;52.504;13.480;2022-10-17T10:41:00;10.52;;;3.22;;
51866;SDS011;52862;52.504;13.480;2022-10-17T10:43:32;8.80;;;3.00;;
51866;SDS011;52862;52.504;13.480;2022-10-17T10:46:01;10.15;;;3.30;;
51866;SDS011;52862;52.504;13.480;2022-10-17T10:48:32;12.90;;;2.97;;
51866;SDS011;52862;52.504;13.480;2022-10-17T10:51:03;12.70;;;3.90;;
51866;SDS011;52862;52.504;13.480;2022-10-17T10:53:40;10.57;;;3.60;;
51866;SDS011;52862;52.504;13.480;2022-10-17T10:56:13;7.47;;;2.58;;
51866;SDS011;52862;52.504;13.480;2022-10-17T10:58:49;5.05;;;2.45;;
51866;SDS011;52862;52.504;13.480;2022-10-17T11:01:21;5.43;;;2.97;;
51866;SDS011;52862;52.504;13.480;2022-10-17T11:03:56;12.45;;;3.10;;
51866;SDS011;52862;52.504;13.480;2022-10-17T11:06:33;9.40;;;3.25;;
51866;SDS011;52862;52.504;13.480;2022-10-17T11:09:05;7.93;;;2.83;;
51866;SDS011;52862;52.504;13.480;2022-10-17T11:11:44;12.82;;;2.55;;
51866;SDS011;52862;52.504;13.480;2022-10-17T11:14:16;7.15;;;3.08;;
51866;SDS011;52862;52.504;13.480;2022-10-17T11:16:46;9.65;;;2.70;;
51866;SDS011;52862;52.504;13.480;2022-10-17T11:19:22;19.30;;;3.80;;
51866;SDS011;52862;52.504;13.480;2022-10-17T11:21:57;18.48;;;3.60;;
51866;SDS011;52862;52.504;13.480;2022-10-17T11:24:31;5.93;;;2.90;;
51866;SDS011;52862;52.504;13.480;2022-10-17T11:27:03;8.00;;;3.00;;
51866;SDS011;52862;52.504;13.480;2022-10-17T11:29:32;6.65;;;2.85;;
51866;SDS011;52862;52.504;13.480;2022-10-17T11:32:01;7.60;;;2.88;;
51866;SDS011;52862;52.504;13.480;2022-10-17T11:34:31;8.43;;;2.88;;
51866;SDS011;52862;52.504;13.480;2022-10-17T11:37:03;8.20;;;2.72;;
51866;SDS011;52862;52.504;13.480;2022-10-17T11:39:38;8.20;;;3.15;;
51866;SDS011;52862;52.504;13.480;2022-10-17T11:42:13;8.73;;;3.00;;
51866;SDS011;52862;52.504;13.480;2022-10-17T11:44:43;13.88;;;3.20;;
51866;SDS011;52862;52.504;13.480;2022-10-17T11:47:12;10.98;;;3.08;;
51866;SDS011;52862;52.504;13.480;2022-10-17T11:49:48;16.30;;;3.33;;
51866;SDS011;52862;52.504;13.480;2022-10-17T11:52:22;6.13;;;3.47;;
51866;SDS011;52862;52.504;13.480;2022-10-17T11:55:16;7.20;;;2.75;;
51866;SDS011;52862;52.504;13.480;2022-10-17T11:57:52;11.43;;;3.53;;
51866;SDS011;52862;52.504;13.480;2022-10-17T12:00:29;9.77;;;2.78;;
51866;SDS011;52862;52.504;13.480;2022-10-17T12:03:12;6.28;;;2.90;;
51866;SDS011;52862;52.504;13.480;2022-10-17T12:05:49;5.88;;;3.25;;
51866;SDS011;52862;52.504;13.480;2022-10-17T12:08:23;12.55;;;3.40;;
51866;SDS011;52862;52.504;13.480;2022-10-17T12:10:57;10.20;;;3.80;;
51866;SDS011;52862;52.504;13.480;2022-10-17T12:13:48;11.68;;;4.55;;
51866;SDS011;52862;52.504;13.480;2022-10-17T12:19:18;23.65;;;8.13;;
51866;SDS011;52862;52.504;13.480;2022-10-17T12:21:55;13.40;;;4.10;;
51866;SDS011;52862;52.504;13.480;2022-10-17T12:24:28;8.77;;;3.63;;
51866;SDS011;52862;52.504;13.480;2022-10-17T12:30:15;6.50;;;3.47;;
51866;SDS011;52862;52.504;13.480;2022-10-17T12:32:54;8.57;;;3.67;;
51866;SDS011;52862;52.504;13.480;2022-10-17T12:35:33;12.82;;;3.85;;
51866;SDS011;52862;52.504;13.480;2022-10-17T12:38:04;25.10;;;3.90;;
51866;SDS011;52862;52.504;13.480;2022-10-17T12:40:48;17.73;;;3.42;;
51866;SDS011;52862;52.504;13.480;2022-10-17T12:46:08;15.73;;;3.40;;
51866;SDS011;52862;52.504;13.480;2022-10-17T12:51:25;7.13;;;3.88;;
51866;SDS011;52862;52.504;13.480;2022-10-17T12:54:08;14.45;;;3.25;;
51866;SDS011;52862;52.504;13.480;2022-10-17T12:56:40;12.45;;;3.20;;
51866;SDS011;52862;52.504;13.480;2022-10-17T12:59:26;8.75;;;3.42;;
51866;SDS011;52862;52.504;13.480;2022-10-17T13:02:23;10.70;;;3.65;;
51866;SDS011;52862;52.504;13.480;2022-10-17T13:04:56;24.35;;;3.22;;
51866;SDS011;52862;52.504;13.480;2022-10-17T13:07:39;6.63;;;3.00;;
51866;SDS011;52862;52.504;13.480;2022-10-17T13:10:19;7.03;;;3.05;;
51866;SDS011;52862;52.504;13.480;2022-10-17T13:12:47;14.02;;;3.05;;
51866;SDS011;52862;52.504;13.480;2022-10-17T13:15:16;12.77;;;2.90;;
51866;SDS011;52862;52.504;13.480;2022-10-17T13:17:44;6.75;;;3.08;;
51866;SDS011;52862;52.504;13.480;2022-10-17T13:20:20;15.15;;;3.53;;
51866;SDS011;52862;52.504;13.480;2022-10-17T13:22:56;13.40;;;3.70;;
51866;SDS011;52862;52.504;13.480;2022-10-17T13:25:24;22.10;;;3.53;;
51866;SDS011;52862;52.504;13.480;2022-10-17T13:28:02;16.08;;;3.50;;
51866;SDS011;52862;52.504;13.480;2022-10-17T13:30:32;10.00;;;3.55;;
51866;SDS011;52862;52.504;13.480;2022-10-17T13:33:02;13.43;;;3.25;;
51866;SDS011;52862;52.504;13.480;2022-10-17T13:35:40;15.55;;;2.40;;
51866;SDS011;52862;52.504;13.480;2022-10-17T13:38:26;17.58;;;3.13;;
51866;SDS011;52862;52.504;13.480;2022-10-17T13:40:57;15.15;;;3.30;;
51866;SDS011;52862;52.504;13.480;2022-10-17T13:43:42;11.60;;;3.35;;
51866;SDS011;52862;52.504;13.480;2022-10-17T13:46:13;20.48;;;3.45;;
51866;SDS011;52862;52.504;13.480;2022-10-17T13:49:08;8.73;;;2.90;;
51866;SDS011;52862;52.504;13.480;2022-10-17T13:51:40;14.23;;;3.38;;
51866;SDS011;52862;52.504;13.480;2022-10-17T13:54:16;14.57;;;4.95;;
51866;SDS011;52862;52.504;13.480;2022-10-17T13:56:44;16.15;;;3.45;;
51866;SDS011;52862;52.504;13.480;2022-10-17T13:59:17;7.78;;;3.67;;
51866;SDS011;52862;52.504;13.480;2022-10-17T14:01:48;18.77;;;3.75;;
51866;SDS011;52862;52.504;13.480;2022-10-17T14:04:16;12.50;;;2.85;;
51866;SDS011;52862;52.504;13.480;2022-10-17T14:06:45;10.18;;;3.20;;
51866;SDS011;52862;52.504;13.480;2022-10-17T14:09:18;14.48;;;2.83;;
51866;SDS011;52862;52.504;13.480;2022-10-17T14:11:55;5.70;;;2.60;;
51866;SDS011;52862;52.504;13.480;2022-10-17T14:14:25;8.68;;;2.58;;
51866;SDS011;52862;52.504;13.480;2022-10-17T14:16:53;7.85;;;2.63;;
51866;SDS011;52862;52.504;13.480;2022-10-17T14:19:22;9.68;;;2.90;;
51866;SDS011;52862;52.504;13.480;2022-10-17T14:21:52;13.48;;;3.05;;
51866;SDS011;52862;52.504;13.480;2022-10-17T14:24:26;13.15;;;3.55;;
51866;SDS011;52862;52.504;13.480;2022-10-17T14:26:57;4.60;;;2.50;;
51866;SDS011;52862;52.504;13.480;2022-10-17T14:29:25;11.30;;;3.38;;
51866;SDS011;52862;52.504;13.480;2022-10-17T14:31:57;11.20;;;3.45;;
51866;SDS011;52862;52.504;13.480;2022-10-17T14:34:38;17.77;;;2.70;;
51866;SDS011;52862;52.504;13.480;2022-10-17T14:37:09;12.43;;;3.17;;
51866;SDS011;52862;52.504;13.480;2022-10-17T14:39:37;12.85;;;2.88;;
51866;SDS011;52862;52.504;13.480;2022-10-17T14:42:05;19.20;;;3.45;;
51866;SDS011;52862;52.504;13.480;2022-10-17T14:44:32;11.80;;;2.83;;
51866;SDS011;52862;52.504;13.480;2022-10-17T14:47:00;17.30;;;2.78;;
51866;SDS011;52862;52.504;13.480;2022-10-17T14:49:49;15.88;;;3.50;;
51866;SDS011;52862;52.504;13.480;2022-10-17T14:52:27;21.00;;;3.28;;
51866;SDS011;52862;52.504;13.480;2022-10-17T14:54:56;9.02;;;2.95;;
51866;SDS011;52862;52.504;13.480;2022-10-17T14:57:26;19.27;;;3.17;;
51866;SDS011;52862;52.504;13.480;2022-10-17T15:00:05;19.52;;;4.07;;
51866;SDS011;52862;52.504;13.480;2022-10-17T15:02:33;7.90;;;3.17;;
51866;SDS011;52862;52.504;13.480;2022-10-17T15:05:00;11.65;;;3.33;;